Time,TemperatureF,DewpointF,PressureIn,WindDirection,WindDirectionDegrees,WindSpeedMPH,WindSpeedGustMPH,Humidity,HourlyPrecipIn,Conditions,Clouds,dailyrainin,SolarRadiationWatts/m^2,SoftwareType,DateUTC
2013-05-05 00:07:00,61.8,41.3,29.93,West,263,0.0,0.0,47,0.00,,,0.00,0,Wunderground v.1.15,2013-05-05 07:07:00,
2013-05-05 00:17:00,61.2,41.9,29.93,West,261,0.0,0.0,49,0.00,,,0.00,0,Wunderground v.1.15,2013-05-05 07:17:00,
2013-05-05 00:28:00,60.7,41.4,29.93,West,263,0.0,0.0,49,0.00,,,0.00,0,Wunderground v.1.15,2013-05-05 07:28:00,
2013-05-05 00:38:00,60.1,41.9,29.93,West,261,0.0,0.0,51,0.00,,,0.00,0,Wunderground v.1.15,2013-05-05 07:38:00,
2013-05-05 00:48:00,59.9,42.2,29.93,West,261,0.0,0.0,52,0.00,,,0.00,0,Wunderground v.1.15,2013-05-05 07:48:00,
2013-05-05 00:58:00,59.8,40.6,29.93,West,261,0.0,0.0,49,0.00,,,0.00,0,Wunderground v.1.15,2013-05-05 07:58:00,
2013-05-05 01:08:00,59.6,40.4,29.92,West,261,0.0,0.0,49,0.00,,,0.00,0,Wunderground v.1.15,2013-05-05 08:08:00,
2013-05-05 01:22:00,59.9,40.7,29.92,West,261,0.0,0.0,49,0.00,,,0.00,0,Wunderground v.1.15,2013-05-05 08:22:00,
2013-05-05 01:31:00,60.1,40.9,29.92,West,261,0.0,0.0,49,0.00,,,0.00,0,Wunderground v.1.15,2013-05-05 08:31:00,
2013-05-05 01:37:00,59.9,41.2,29.92,West,261,0.0,0.0,50,0.00,,,0.00,0,Wunderground v.1.15,2013-05-05 08:37:00,
2013-05-05 01:47:00,59.6,41.4,29.92,West,261,0.0,1.0,51,0.00,,,0.00,0,Wunderground v.1.15,2013-05-05 08:47:00,
2013-05-05 01:57:00,59.3,41.7,29.92,WSW,257,0.0,0.0,52,0.00,,,0.00,0,Wunderground v.1.15,2013-05-05 08:57:00,
2013-05-05 02:07:00,58.7,41.6,29.92,WSW,253,0.0,0.0,53,0.00,,,0.00,0,Wunderground v.1.15,2013-05-05 09:07:00,
2013-05-05 02:21:00,58.4,41.8,29.92,WSW,250,0.0,0.0,54,0.00,,,0.00,0,Wunderground v.1.15,2013-05-05 09:21:00,
2013-05-05 02:27:00,58.3,41.7,29.92,WSW,250,0.0,0.0,54,0.00,,,0.00,0,Wunderground v.1.15,2013-05-05 09:27:00,
2013-05-05 02:37:00,58.6,41.5,29.92,WSW,251,0.0,0.0,53,0.00,,,0.00,0,Wunderground v.1.15,2013-05-05 09:37:00,
2013-05-05 02:47:00,58.9,41.8,29.92,WSW,253,0.0,1.0,53,0.00,,,0.00,0,Wunderground v.1.15,2013-05-05 09:47:00,
2013-05-05 02:57:00,59.2,42.1,29.92,SSW,205,1.0,1.0,53,0.00,,,0.00,0,Wunderground v.1.15,2013-05-05 09:57:00,
2013-05-05 03:07:00,59.3,42.2,29.92,SSW,203,0.0,0.0,53,0.00,,,0.00,0,Wunderground v.1.15,2013-05-05 10:07:00,
2013-05-05 03:18:00,59.0,42.4,29.91,SSW,203,0.0,0.0,54,0.00,,,0.00,0,Wunderground v.1.15,2013-05-05 10:18:00,
2013-05-05 03:27:00,58.3,43.1,29.91,SSW,210,0.0,2.0,57,0.00,,,0.00,0,Wunderground v.1.15,2013-05-05 10:27:00,
2013-05-05 03:37:00,57.6,42.5,29.91,SW,229,2.0,4.0,57,0.00,,,0.00,0,Wunderground v.1.15,2013-05-05 10:37:00,
2013-05-05 03:48:00,57.2,43.4,29.90,SW,222,0.0,1.0,60,0.00,,,0.00,0,Wunderground v.1.15,2013-05-05 10:48:00,
2013-05-05 03:58:00,56.2,43.8,29.90,SW,220,0.0,0.0,63,0.00,,,0.00,0,Wunderground v.1.15,2013-05-05 10:58:00,
2013-05-05 04:08:00,55.4,43.4,29.90,SW,229,0.0,0.0,64,0.00,,,0.00,0,Wunderground v.1.15,2013-05-05 11:08:00,
2013-05-05 04:18:00,55.0,43.4,29.91,SW,227,0.0,1.0,65,0.00,,,0.00,0,Wunderground v.1.15,2013-05-05 11:18:00,
2013-05-05 04:31:00,55.1,41.9,29.91,SW,227,0.0,0.0,61,0.00,,,0.00,0,Wunderground v.1.15,2013-05-05 11:31:00,
2013-05-05 04:37:00,55.4,42.2,29.91,SW,227,0.0,0.0,61,0.00,,,0.00,0,Wunderground v.1.15,2013-05-05 11:37:00,
2013-05-05 04:51:00,55.1,42.7,29.91,SW,227,0.0,1.0,63,0.00,,,0.00,0,Wunderground v.1.15,2013-05-05 11:51:00,
2013-05-05 04:57:00,55.1,42.7,29.91,SW,227,1.0,1.0,63,0.00,,,0.00,0,Wunderground v.1.15,2013-05-05 11:57:00,
2013-05-05 05:07:00,55.3,42.5,29.90,SW,227,0.0,1.0,62,0.00,,,0.00,0,Wunderground v.1.15,2013-05-05 12:07:00,
2013-05-05 05:17:00,54.8,42.9,29.90,SSW,203,0.0,0.0,64,0.00,,,0.00,0,Wunderground v.1.15,2013-05-05 12:17:00,
2013-05-05 05:27:00,54.5,42.6,29.90,SW,227,0.0,0.0,64,0.00,,,0.00,0,Wunderground v.1.15,2013-05-05 12:27:00,
2013-05-05 05:37:00,54.4,42.5,29.90,SW,227,1.0,1.0,64,0.00,,,0.00,0,Wunderground v.1.15,2013-05-05 12:37:00,
2013-05-05 05:47:00,54.2,43.1,29.90,SW,229,0.0,0.0,66,0.00,,,0.00,5,Wunderground v.1.15,2013-05-05 12:47:00,
2013-05-05 06:02:00,53.5,44.0,29.90,SW,227,0.0,0.0,70,0.00,,,0.00,11,Wunderground v.1.15,2013-05-05 13:02:00,
2013-05-05 06:12:00,53.2,42.9,29.90,SW,226,0.0,0.0,68,0.00,,,0.00,12,Wunderground v.1.15,2013-05-05 13:12:00,
2013-05-05 06:22:00,53.3,43.0,29.90,SW,226,0.0,0.0,68,0.00,,,0.00,16,Wunderground v.1.15,2013-05-05 13:22:00,
2013-05-05 06:27:00,53.1,43.6,29.90,SW,226,0.0,0.0,70,0.00,,,0.00,18,Wunderground v.1.15,2013-05-05 13:27:00,
2013-05-05 06:42:00,53.2,43.3,29.90,SW,226,0.0,0.0,69,0.00,,,0.00,21,Wunderground v.1.15,2013-05-05 13:42:00,
2013-05-05 06:48:00,53.1,43.6,29.90,SW,226,0.0,0.0,70,0.00,,,0.00,25,Wunderground v.1.15,2013-05-05 13:48:00,
2013-05-05 06:58:00,52.9,44.1,29.90,SW,226,0.0,0.0,72,0.00,,,0.00,28,Wunderground v.1.15,2013-05-05 13:58:00,
2013-05-05 07:08:00,53.3,44.1,29.90,SW,227,0.0,0.0,71,0.00,,,0.00,49,Wunderground v.1.15,2013-05-05 14:08:00,
2013-05-05 07:22:00,53.9,44.7,29.90,SW,229,0.0,0.0,71,0.00,,,0.00,65,Wunderground v.1.15,2013-05-05 14:22:00,
2013-05-05 07:31:00,54.7,44.7,29.90,SW,229,0.0,0.0,69,0.00,,,0.00,216,Wunderground v.1.15,2013-05-05 14:31:00,
2013-05-05 07:37:00,55.7,44.1,29.90,SW,230,0.0,0.0,65,0.00,,,0.00,229,Wunderground v.1.15,2013-05-05 14:37:00,
2013-05-05 07:47:00,57.8,44.4,29.90,SW,229,0.0,0.0,61,0.00,,,0.00,260,Wunderground v.1.15,2013-05-05 14:47:00,
2013-05-05 07:57:00,59.2,45.3,29.90,SW,229,0.0,0.0,60,0.00,,,0.00,283,Wunderground v.1.15,2013-05-05 14:57:00,
2013-05-05 08:11:00,60.5,45.6,29.90,SW,229,0.0,0.0,58,0.00,,,0.00,331,Wunderground v.1.15,2013-05-05 15:11:00,
2013-05-05 08:17:00,61.5,45.7,29.89,SW,229,0.0,0.0,56,0.00,,,0.00,350,Wunderground v.1.15,2013-05-05 15:17:00,
2013-05-05 08:27:00,63.4,46.0,29.89,SW,229,0.0,0.0,53,0.00,,,0.00,371,Wunderground v.1.15,2013-05-05 15:27:00,
2013-05-05 08:37:00,64.7,46.7,29.89,SW,229,0.0,0.0,52,0.00,,,0.00,406,Wunderground v.1.15,2013-05-05 15:37:00,
2013-05-05 08:52:00,63.7,46.7,29.88,SW,229,0.0,1.0,54,0.00,,,0.00,438,Wunderground v.1.15,2013-05-05 15:52:00,
2013-05-05 08:58:00,63.9,45.9,29.88,SW,236,0.0,2.0,52,0.00,,,0.00,459,Wunderground v.1.15,2013-05-05 15:58:00,
2013-05-05 09:07:00,64.5,44.9,29.89,SW,236,1.0,3.0,49,0.00,,,0.00,493,Wunderground v.1.15,2013-05-05 16:07:00,
2013-05-05 09:18:00,64.8,45.2,29.88,SW,232,1.0,2.0,49,0.00,,,0.00,521,Wunderground v.1.15,2013-05-05 16:18:00,
2013-05-05 09:32:00,67.3,45.2,29.88,ESE,116,0.0,0.0,45,0.00,,,0.00,561,Wunderground v.1.15,2013-05-05 16:32:00,
2013-05-05 09:42:00,67.1,45.0,29.88,SW,232,0.0,0.0,45,0.00,,,0.00,588,Wunderground v.1.15,2013-05-05 16:42:00,
2013-05-05 09:52:00,66.6,45.2,29.88,SW,232,1.0,1.0,46,0.00,,,0.00,612,Wunderground v.1.15,2013-05-05 16:52:00,
2013-05-05 09:58:00,66.9,45.4,29.88,SW,233,0.0,2.0,46,0.00,,,0.00,623,Wunderground v.1.15,2013-05-05 16:58:00,
2013-05-05 10:08:00,66.3,45.5,29.87,WSW,239,2.0,3.0,47,0.00,,,0.00,648,Wunderground v.1.15,2013-05-05 17:08:00,
2013-05-05 10:18:00,66.9,43.0,29.87,WNW,287,2.0,4.0,42,0.00,,,0.00,672,Wunderground v.1.15,2013-05-05 17:18:00,
2013-05-05 10:31:00,68.1,42.2,29.86,NW,316,4.0,6.0,39,0.00,,,0.00,700,Wunderground v.1.15,2013-05-05 17:31:00,
2013-05-05 10:37:00,68.6,42.6,29.86,NNW,332,5.0,6.0,39,0.00,,,0.00,709,Wunderground v.1.15,2013-05-05 17:37:00,
2013-05-05 10:51:00,69.3,42.6,29.86,NNW,342,6.0,6.0,38,0.00,,,0.00,739,Wunderground v.1.15,2013-05-05 17:51:00,
2013-05-05 10:57:00,69.6,41.5,29.86,NW,305,5.0,6.0,36,0.00,,,0.00,751,Wunderground v.1.15,2013-05-05 17:57:00,
2013-05-05 11:07:00,70.3,40.6,29.85,NNW,337,6.0,6.0,34,0.00,,,0.00,767,Wunderground v.1.15,2013-05-05 18:07:00,
2013-05-05 11:17:00,72.1,40.6,29.85,NW,323,3.0,6.0,32,0.00,,,0.00,783,Wunderground v.1.15,2013-05-05 18:17:00,
2013-05-05 11:27:00,72.8,42.0,29.85,NW,309,3.0,6.0,33,0.00,,,0.00,799,Wunderground v.1.15,2013-05-05 18:27:00,
2013-05-05 11:42:00,73.2,40.7,29.84,WNW,285,4.0,4.0,31,0.00,,,0.00,818,Wunderground v.1.15,2013-05-05 18:42:00,
2013-05-05 11:52:00,72.8,41.2,29.85,West,271,5.0,5.0,32,0.00,,,0.00,825,Wunderground v.1.15,2013-05-05 18:52:00,
2013-05-05 11:57:00,73.0,40.6,29.85,NW,308,4.0,5.0,31,0.00,,,0.00,832,Wunderground v.1.15,2013-05-05 18:57:00,
2013-05-05 12:07:00,73.2,40.7,29.84,West,268,5.0,7.0,31,0.00,,,0.00,843,Wunderground v.1.15,2013-05-05 19:07:00,
2013-05-05 12:18:00,73.5,41.0,29.83,West,277,3.0,4.0,31,0.00,,,0.00,852,Wunderground v.1.15,2013-05-05 19:18:00,
2013-05-05 12:28:00,73.5,40.2,29.83,NNW,344,5.0,6.0,30,0.00,,,0.00,857,Wunderground v.1.15,2013-05-05 19:28:00,
2013-05-05 12:42:00,73.7,40.3,29.83,NW,305,7.0,7.0,30,0.00,,,0.00,866,Wunderground v.1.15,2013-05-05 19:42:00,
2013-05-05 12:52:00,73.3,40.0,29.82,WNW,296,6.0,6.0,30,0.00,,,0.00,869,Wunderground v.1.15,2013-05-05 19:52:00,
2013-05-05 12:58:00,73.0,41.4,29.82,NNW,333,8.0,8.0,32,0.00,,,0.00,869,Wunderground v.1.15,2013-05-05 19:58:00,
2013-05-05 13:08:00,73.3,40.8,29.82,North,350,6.0,7.0,31,0.00,,,0.00,869,Wunderground v.1.15,2013-05-05 20:08:00,
2013-05-05 13:18:00,74.6,43.6,29.81,NW,312,5.0,5.0,33,0.00,,,0.00,866,Wunderground v.1.15,2013-05-05 20:18:00,
2013-05-05 13:28:00,73.3,44.0,29.81,WNW,284,6.0,10.0,35,0.00,,,0.00,864,Wunderground v.1.15,2013-05-05 20:28:00,
2013-05-05 13:37:00,73.5,42.6,29.81,WNW,287,7.0,12.0,33,0.00,,,0.00,864,Wunderground v.1.15,2013-05-05 20:37:00,
2013-05-05 13:51:00,74.2,39.0,29.80,NW,304,7.0,13.0,28,0.00,,,0.00,859,Wunderground v.1.15,2013-05-05 20:51:00,
2013-05-05 13:57:00,74.2,38.1,29.80,West,270,8.0,13.0,27,0.00,,,0.00,853,Wunderground v.1.15,2013-05-05 20:57:00,
2013-05-05 14:07:00,75.3,39.0,29.80,NNW,344,7.0,10.0,27,0.00,,,0.00,848,Wunderground v.1.15,2013-05-05 21:07:00,
2013-05-05 14:17:00,76.1,37.7,29.79,NNW,328,8.0,8.0,25,0.00,,,0.00,838,Wunderground v.1.15,2013-05-05 21:17:00,
2013-05-05 14:27:00,75.8,38.5,29.79,NW,326,8.0,9.0,26,0.00,,,0.00,827,Wunderground v.1.15,2013-05-05 21:27:00,
2013-05-05 14:37:00,76.1,40.6,29.79,WNW,291,8.0,9.0,28,0.00,,,0.00,815,Wunderground v.1.15,2013-05-05 21:37:00,
2013-05-05 14:47:00,76.5,41.0,29.78,West,281,7.0,7.0,28,0.00,,,0.00,802,Wunderground v.1.15,2013-05-05 21:47:00,
2013-05-05 14:57:00,76.3,42.6,29.78,SSE,148,6.0,6.0,30,0.00,,,0.00,787,Wunderground v.1.15,2013-05-05 21:57:00,
2013-05-05 15:07:00,76.0,43.2,29.77,NW,315,6.0,8.0,31,0.00,,,0.00,771,Wunderground v.1.15,2013-05-05 22:07:00,
2013-05-05 15:18:00,75.8,43.8,29.77,WNW,292,7.0,12.0,32,0.00,,,0.00,757,Wunderground v.1.15,2013-05-05 22:18:00,
2013-05-05 15:27:00,75.8,40.4,29.77,WNW,295,8.0,8.0,28,0.00,,,0.00,737,Wunderground v.1.15,2013-05-05 22:27:00,
2013-05-05 15:42:00,76.1,40.6,29.76,WNW,298,8.0,8.0,28,0.00,,,0.00,707,Wunderground v.1.15,2013-05-05 22:42:00,
2013-05-05 15:48:00,77.4,40.8,29.75,North,356,5.0,8.0,27,0.00,,,0.00,695,Wunderground v.1.15,2013-05-05 22:48:00,
2013-05-05 15:58:00,77.6,41.0,29.75,North,350,6.0,17.0,27,0.00,,,0.00,674,Wunderground v.1.15,2013-05-05 22:58:00,
2013-05-05 16:08:00,77.0,41.4,29.75,North,3,7.0,7.0,28,0.00,,,0.00,651,Wunderground v.1.15,2013-05-05 23:08:00,
2013-05-05 16:18:00,77.7,41.0,29.74,NW,325,6.0,7.0,27,0.00,,,0.00,625,Wunderground v.1.15,2013-05-05 23:18:00,
2013-05-05 16:28:00,77.6,41.0,29.74,WNW,295,7.0,7.0,27,0.00,,,0.00,602,Wunderground v.1.15,2013-05-05 23:28:00,
2013-05-05 16:41:00,78.3,39.6,29.73,WNW,291,5.0,5.0,25,0.00,,,0.00,568,Wunderground v.1.15,2013-05-05 23:41:00,
2013-05-05 16:47:00,78.3,38.5,29.73,NNW,346,5.0,7.0,24,0.00,,,0.00,552,Wunderground v.1.15,2013-05-05 23:47:00,
2013-05-05 16:57:00,77.6,39.0,29.73,NNW,344,8.0,11.0,25,0.00,,,0.00,526,Wunderground v.1.15,2013-05-05 23:57:00,
2013-05-05 17:07:00,78.3,38.5,29.73,North,352,6.0,7.0,24,0.00,,,0.00,498,Wunderground v.1.15,2013-05-06 00:07:00,
2013-05-05 17:22:00,77.9,37.1,29.72,WNW,291,7.0,9.0,23,0.00,,,0.00,457,Wunderground v.1.15,2013-05-06 00:22:00,
2013-05-05 17:27:00,77.7,36.9,29.72,NW,316,8.0,10.0,23,0.00,,,0.00,442,Wunderground v.1.15,2013-05-06 00:27:00,
2013-05-05 17:37:00,78.1,36.1,29.72,NW,318,6.0,7.0,22,0.00,,,0.00,412,Wunderground v.1.15,2013-05-06 00:37:00,
2013-05-05 17:47:00,78.1,37.3,29.71,NW,325,6.0,10.0,23,0.00,,,0.00,384,Wunderground v.1.15,2013-05-06 00:47:00,
2013-05-05 17:57:00,78.1,38.4,29.71,NNW,346,5.0,8.0,24,0.00,,,0.00,357,Wunderground v.1.15,2013-05-06 00:57:00,
2013-05-05 18:07:00,77.4,38.8,29.71,North,357,7.0,7.0,25,0.00,,,0.00,324,Wunderground v.1.15,2013-05-06 01:07:00,
2013-05-05 18:17:00,77.6,40.0,29.71,NNW,332,4.0,5.0,26,0.00,,,0.00,296,Wunderground v.1.15,2013-05-06 01:17:00,
2013-05-05 18:28:00,77.6,40.0,29.71,NW,308,5.0,7.0,26,0.00,,,0.00,264,Wunderground v.1.15,2013-05-06 01:28:00,
2013-05-05 18:38:00,77.7,41.0,29.71,NW,325,4.0,4.0,27,0.00,,,0.00,234,Wunderground v.1.15,2013-05-06 01:38:00,
2013-05-05 18:48:00,77.4,41.7,29.70,NNW,339,4.0,5.0,28,0.00,,,0.00,206,Wunderground v.1.15,2013-05-06 01:48:00,
2013-05-05 18:58:00,77.4,41.7,29.70,NW,305,3.0,4.0,28,0.00,,,0.00,178,Wunderground v.1.15,2013-05-06 01:58:00,
2013-05-05 19:08:00,77.4,41.7,29.70,NW,315,2.0,3.0,28,0.00,,,0.00,150,Wunderground v.1.15,2013-05-06 02:08:00,
2013-05-05 19:18:00,77.0,41.4,29.71,WNW,296,1.0,2.0,28,0.00,,,0.00,125,Wunderground v.1.15,2013-05-06 02:18:00,
2013-05-05 19:28:00,76.3,42.6,29.71,West,275,2.0,2.0,30,0.00,,,0.00,100,Wunderground v.1.15,2013-05-06 02:28:00,
2013-05-05 19:37:00,75.8,43.8,29.71,WNW,282,1.0,2.0,32,0.00,,,0.00,30,Wunderground v.1.15,2013-05-06 02:37:00,
2013-05-05 19:47:00,74.0,45.3,29.71,West,263,1.0,2.0,36,0.00,,,0.00,26,Wunderground v.1.15,2013-05-06 02:47:00,
2013-05-05 20:01:00,72.5,46.8,29.71,West,281,1.0,1.0,40,0.00,,,0.00,19,Wunderground v.1.15,2013-05-06 03:01:00,
2013-05-05 20:07:00,72.1,47.1,29.71,West,275,1.0,1.0,41,0.00,,,0.00,18,Wunderground v.1.15,2013-05-06 03:07:00,
2013-05-05 20:17:00,71.3,47.6,29.71,SW,223,0.0,0.0,43,0.00,,,0.00,12,Wunderground v.1.15,2013-05-06 03:17:00,
2013-05-05 20:32:00,69.8,48.1,29.71,SW,236,0.0,0.0,46,0.00,,,0.00,5,Wunderground v.1.15,2013-05-06 03:32:00,
2013-05-05 20:37:00,69.4,48.3,29.71,West,280,0.0,0.0,47,0.00,,,0.00,5,Wunderground v.1.15,2013-05-06 03:37:00,
2013-05-05 20:47:00,68.8,48.9,29.72,West,281,0.0,1.0,49,0.00,,,0.00,0,Wunderground v.1.15,2013-05-06 03:47:00,
2013-05-05 20:57:00,68.4,49.0,29.72,WNW,282,0.0,1.0,50,0.00,,,0.00,0,Wunderground v.1.15,2013-05-06 03:57:00,
2013-05-05 21:02:00,68.3,50.0,29.72,WNW,282,0.0,0.0,52,0.00,,,0.00,0,Wunderground v.1.15,2013-05-06 04:02:00,
2013-05-05 21:07:00,67.8,49.5,29.72,WNW,282,0.0,0.0,52,0.00,,,0.00,0,Wunderground v.1.15,2013-05-06 04:07:00,
2013-05-05 21:12:00,67.6,48.8,29.72,WNW,282,0.0,0.0,51,0.00,,,0.00,0,Wunderground v.1.15,2013-05-06 04:12:00,
2013-05-05 21:17:00,67.4,49.7,29.72,WNW,282,0.0,0.0,53,0.00,,,0.00,0,Wunderground v.1.15,2013-05-06 04:17:00,
2013-05-05 21:28:00,66.9,49.7,29.72,WNW,282,0.0,0.0,54,0.00,,,0.00,0,Wunderground v.1.15,2013-05-06 04:28:00,
2013-05-05 21:38:00,66.9,47.1,29.73,WNW,282,0.0,0.0,49,0.00,,,0.00,0,Wunderground v.1.15,2013-05-06 04:38:00,
2013-05-05 21:52:00,67.6,47.2,29.73,WNW,282,0.0,0.0,48,0.00,,,0.00,0,Wunderground v.1.15,2013-05-06 04:52:00,
2013-05-05 21:58:00,67.9,47.5,29.73,WNW,282,0.0,0.0,48,0.00,,,0.00,0,Wunderground v.1.15,2013-05-06 04:58:00,
2013-05-05 22:12:00,68.4,47.4,29.73,WNW,282,0.0,0.0,47,0.00,,,0.00,0,Wunderground v.1.15,2013-05-06 05:12:00,
2013-05-05 22:18:00,68.6,47.6,29.73,WNW,282,0.0,0.0,47,0.00,,,0.00,0,Wunderground v.1.15,2013-05-06 05:18:00,
2013-05-05 22:28:00,68.6,48.1,29.73,WNW,282,0.0,0.0,48,0.00,,,0.00,0,Wunderground v.1.15,2013-05-06 05:28:00,
2013-05-05 22:37:00,68.3,48.4,29.73,WNW,282,0.0,0.0,49,0.00,,,0.00,0,Wunderground v.1.15,2013-05-06 05:37:00,
2013-05-05 22:47:00,67.3,48.5,29.73,WNW,282,0.0,0.0,51,0.00,,,0.00,0,Wunderground v.1.15,2013-05-06 05:47:00,
2013-05-05 22:57:00,67.1,48.9,29.73,WNW,282,0.0,0.0,52,0.00,,,0.00,0,Wunderground v.1.15,2013-05-06 05:57:00,
2013-05-05 23:07:00,67.4,48.1,29.74,WNW,282,0.0,0.0,50,0.00,,,0.00,0,Wunderground v.1.15,2013-05-06 06:07:00,
2013-05-05 23:17:00,66.1,49.9,29.74,West,281,0.0,0.0,56,0.00,,,0.00,0,Wunderground v.1.15,2013-05-06 06:17:00,
2013-05-05 23:27:00,65.3,48.7,29.74,West,272,0.0,0.0,55,0.00,,,0.00,0,Wunderground v.1.15,2013-05-06 06:27:00,
2013-05-05 23:37:00,65.5,47.9,29.74,West,274,0.0,0.0,53,0.00,,,0.00,0,Wunderground v.1.15,2013-05-06 06:37:00,
2013-05-05 23:47:00,65.2,49.6,29.74,West,272,0.0,0.0,57,0.00,,,0.00,0,Wunderground v.1.15,2013-05-06 06:47:00,
2013-05-05 23:57:00,64.0,49.4,29.74,West,281,0.0,0.0,59,0.00,,,0.00,0,Wunderground v.1.15,2013-05-06 06:57:00,